Time;durP1;ratioP1;P1;durP2;ratioP2;P2;SDS_P1;SDS_P2;PMS_P1;PMS_P2;Temp;Humidity;BMP_temperature;BMP_pressure;BME280_temperature;BME280_humidity;BME280_pressure;Samples;Min_cycle;Max_cycle;Signal;HPM_P1;HPM_P2
2022/04/02 00:01:52;;;;;;;2.15;1.02;;;3.10;99.90;;;;;;4987256;28;20472;-79
2022/04/02 00:04:18;;;;;;;1.73;0.70;;;3.10;99.90;;;;;;4988016;28;20031;-79
2022/04/02 00:06:44;;;;;;;2.03;1.23;;;3.10;99.90;;;;;;4987399;28;20022;-80
2022/04/02 00:09:09;;;;;;;1.95;1.00;;;3.10;99.90;;;;;;4987547;28;20038;-79
2022/04/02 00:11:35;;;;;;;2.83;0.82;;;3.10;99.90;;;;;;4970213;28;20094;-78
2022/04/02 00:14:01;;;;;;;5.07;0.93;;;3.10;99.90;;;;;;4969088;28;20034;-79
2022/04/02 00:16:26;;;;;;;1.23;0.82;;;3.10;99.90;;;;;;4967111;28;20110;-79
2022/04/02 00:18:52;;;;;;;1.52;0.90;;;3.10;99.90;;;;;;4969645;28;20037;-78
2022/04/02 00:21:19;;;;;;;1.67;0.75;;;3.10;99.90;;;;;;4986163;28;20391;-79
2022/04/02 00:23:46;;;;;;;1.48;0.90;;;3.10;99.90;;;;;;4969586;28;20057;-80
2022/04/02 00:26:20;;;;;;;2.33;1.00;;;3.20;99.90;;;;;;4974807;28;20027;-80
2022/04/02 00:28:48;;;;;;;2.60;1.45;;;3.10;99.90;;;;;;4950747;29;20082;-77
2022/04/02 00:31:16;;;;;;;2.45;0.85;;;3.10;99.90;;;;;;4967997;29;20034;-81
2022/04/02 00:33:43;;;;;;;1.67;0.80;;;3.10;99.90;;;;;;4968101;29;20035;-78
2022/04/02 00:36:10;;;;;;;2.42;1.00;;;3.10;99.90;;;;;;4967474;29;20103;-79
2022/04/02 00:38:36;;;;;;;2.47;1.30;;;3.10;99.90;;;;;;4950776;29;20074;-79
2022/04/02 00:41:02;;;;;;;2.00;0.77;;;3.10;99.90;;;;;;4975802;28;20042;-79
2022/04/02 00:43:41;;;;;;;7.80;1.30;;;3.10;99.90;;;;;;4966210;28;20025;-78
2022/04/02 00:46:09;;;;;;;2.58;1.30;;;3.10;99.90;;;;;;4966571;29;20042;-80
2022/04/02 00:48:35;;;;;;;2.42;1.30;;;3.10;99.90;;;;;;4967863;29;20035;-76
2022/04/02 00:51:04;;;;;;;6.43;1.73;;;3.00;99.90;;;;;;4950298;29;20062;-76
2022/04/02 00:53:36;;;;;;;13.20;1.25;;;3.00;99.90;;;;;;4951885;29;20030;-77
2022/04/02 00:56:03;;;;;;;2.47;1.02;;;3.10;99.90;;;;;;4951630;29;20099;-76
2022/04/02 00:58:29;;;;;;;4.68;1.30;;;3.00;99.90;;;;;;4968220;29;20028;-77
2022/04/02 01:00:59;;;;;;;2.40;1.20;;;3.10;99.90;;;;;;4967438;29;20035;-80
2022/04/02 01:03:26;;;;;;;1.88;1.23;;;3.00;99.90;;;;;;4950042;29;20023;-78
2022/04/02 01:05:54;;;;;;;1.83;0.77;;;3.00;99.90;;;;;;4966771;29;20051;-78
2022/04/02 01:08:22;;;;;;;7.95;1.38;;;3.00;99.90;;;;;;4967333;29;20027;-79
2022/04/02 01:10:48;;;;;;;1.00;0.88;;;3.00;99.90;;;;;;4968998;28;20392;-78
2022/04/02 01:13:16;;;;;;;1.83;1.02;;;3.00;99.90;;;;;;4965825;29;20027;-78
2022/04/02 01:15:42;;;;;;;2.75;1.65;;;3.00;99.90;;;;;;4957880;28;20030;-77
2022/04/02 01:18:08;;;;;;;2.28;1.00;;;2.90;99.90;;;;;;4968804;28;20163;-77
2022/04/02 01:20:34;;;;;;;2.65;1.25;;;2.90;99.90;;;;;;4966993;28;20043;-76
2022/04/02 01:23:16;;;;;;;1.35;0.77;;;2.90;99.90;;;;;;4965600;28;20051;-79
2022/04/02 01:25:41;;;;;;;3.22;1.05;;;2.90;99.90;;;;;;4966875;29;20032;-77
2022/04/02 01:28:07;;;;;;;3.28;1.42;;;2.90;99.90;;;;;;4966898;28;20038;-78
2022/04/02 01:30:33;;;;;;;2.95;0.98;;;2.90;99.90;;;;;;4965751;29;20028;-79
2022/04/02 01:32:59;;;;;;;2.25;1.13;;;2.80;99.90;;;;;;4984684;28;20055;-77
2022/04/02 01:35:25;;;;;;;4.03;1.30;;;2.80;99.90;;;;;;4986440;28;20027;-77
2022/04/02 01:37:51;;;;;;;1.90;0.93;;;2.80;99.90;;;;;;4968666;28;20424;-80
2022/04/02 01:40:18;;;;;;;5.28;1.73;;;2.80;99.90;;;;;;4968383;28;20033;-78
2022/04/02 01:42:46;;;;;;;8.85;1.42;;;2.80;99.90;;;;;;4986439;28;20125;-76
2022/04/02 01:45:14;;;;;;;4.80;1.13;;;2.80;99.90;;;;;;4971395;28;20039;-79
2022/04/02 01:47:40;;;;;;;2.45;1.15;;;2.70;99.90;;;;;;4966741;29;20087;-78
2022/04/02 01:50:07;;;;;;;5.40;1.17;;;2.70;99.90;;;;;;4949392;29;20028;-76
2022/04/02 01:52:33;;;;;;;4.30;1.30;;;2.70;99.90;;;;;;4966439;29;20043;-78
2022/04/02 01:54:58;;;;;;;1.52;1.10;;;2.70;99.90;;;;;;4949508;29;20023;-78
2022/04/02 01:57:34;;;;;;;5.30;1.38;;;2.70;99.90;;;;;;4966749;29;20032;-79
2022/04/02 02:00:00;;;;;;;3.90;1.23;;;2.80;99.90;;;;;;4949027;29;20030;-78
2022/04/02 02:02:26;;;;;;;1.27;0.88;;;2.80;99.90;;;;;;4949207;29;20039;-78
2022/04/02 02:04:52;;;;;;;1.63;1.00;;;2.70;99.90;;;;;;4954398;28;20031;-79
2022/04/02 02:07:18;;;;;;;2.28;1.08;;;2.70;99.90;;;;;;4985552;28;20070;-78
2022/04/02 02:09:44;;;;;;;3.13;1.35;;;2.70;99.90;;;;;;4950745;29;20020;-79
2022/04/02 02:12:10;;;;;;;11.38;1.20;;;2.70;99.90;;;;;;4965966;28;20573;-78
2022/04/02 02:14:35;;;;;;;1.75;0.98;;;2.70;99.90;;;;;;4982515;28;20031;-79
2022/04/02 02:17:01;;;;;;;4.53;1.67;;;2.60;99.90;;;;;;4968532;28;20034;-79
2022/04/02 02:19:29;;;;;;;4.60;1.50;;;2.70;99.90;;;;;;4985769;28;20035;-81
2022/04/02 02:21:56;;;;;;;2.38;0.70;;;2.70;99.90;;;;;;4985009;28;20038;-79
2022/04/02 02:24:22;;;;;;;3.67;1.42;;;2.70;99.90;;;;;;4968036;28;20046;-78
2022/04/02 02:26:50;;;;;;;1.45;1.00;;;2.70;99.90;;;;;;4968283;28;20054;-78
2022/04/02 02:29:15;;;;;;;3.60;1.35;;;2.70;99.90;;;;;;4985666;28;20023;-78
2022/04/02 02:31:41;;;;;;;2.42;0.98;;;2.70;99.90;;;;;;4986004;28;20033;-79
2022/04/02 02:36:51;;;;;;;6.60;1.40;;;2.70;99.90;;;;;;4985424;28;20042;-80
2022/04/02 02:39:17;;;;;;;1.92;1.00;;;2.60;99.90;;;;;;4987283;28;20038;-79
2022/04/02 02:41:42;;;;;;;4.32;1.30;;;2.60;99.90;;;;;;5007186;28;20100;-78
2022/04/02 02:44:08;;;;;;;1.17;0.88;;;2.60;99.90;;;;;;5008912;28;20037;-79
2022/04/02 02:46:34;;;;;;;2.40;1.10;;;2.70;99.90;;;;;;4990964;28;20026;-78
2022/04/02 02:49:07;;;;;;;1.60;1.05;;;2.70;99.90;;;;;;5008339;28;20050;-80
2022/04/02 02:51:38;;;;;;;1.60;1.00;;;2.60;99.90;;;;;;4998076;28;20027;-80
2022/04/02 02:54:03;;;;;;;3.40;1.48;;;2.60;99.90;;;;;;4969445;28;20321;-78
2022/04/02 02:56:29;;;;;;;6.25;1.95;;;2.60;99.90;;;;;;4988325;28;20023;-78
2022/04/02 02:58:55;;;;;;;2.75;1.33;;;2.70;99.90;;;;;;4971461;28;20031;-79
2022/04/02 03:01:20;;;;;;;3.63;1.30;;;2.60;99.90;;;;;;4987172;28;20043;-79
2022/04/02 03:03:46;;;;;;;3.00;1.60;;;2.60;99.90;;;;;;4987829;28;20411;-81
2022/04/02 03:06:13;;;;;;;5.40;1.23;;;2.60;99.90;;;;;;4971488;28;20123;-79
2022/04/02 03:08:38;;;;;;;3.08;1.65;;;2.60;99.90;;;;;;4971153;28;20053;-80
2022/04/02 03:11:04;;;;;;;3.47;1.83;;;2.60;99.90;;;;;;4988551;28;20526;-80
2022/04/02 03:13:29;;;;;;;2.53;1.15;;;2.60;99.90;;;;;;4988725;28;20038;-79
2022/04/02 03:15:56;;;;;;;4.07;1.42;;;2.60;99.90;;;;;;4988228;28;20033;-80
2022/04/02 03:18:26;;;;;;;2.83;1.40;;;2.60;99.90;;;;;;4971015;28;20031;-79
2022/04/02 03:20:52;;;;;;;2.72;1.30;;;2.60;99.90;;;;;;4970379;28;20110;-80
2022/04/02 03:23:17;;;;;;;3.78;2.03;;;2.50;99.90;;;;;;4974943;28;20059;-80
2022/04/02 03:25:43;;;;;;;4.78;1.25;;;2.60;99.90;;;;;;4968944;29;20027;-81
2022/04/02 03:28:09;;;;;;;7.95;3.38;;;2.50;99.90;;;;;;4969238;29;20039;-78
2022/04/02 03:30:35;;;;;;;2.72;1.52;;;2.60;99.90;;;;;;4951403;29;20034;-79
2022/04/02 03:33:00;;;;;;;3.50;1.73;;;2.50;99.90;;;;;;4951645;29;20035;-80
2022/04/02 03:35:26;;;;;;;8.88;1.90;;;2.50;99.90;;;;;;4970549;28;20039;-81
2022/04/02 03:37:53;;;;;;;3.63;2.13;;;2.50;99.90;;;;;;4988184;28;20026;-79
2022/04/02 03:40:22;;;;;;;8.90;1.83;;;2.50;99.90;;;;;;4970609;28;20034;-80
2022/04/02 03:42:48;;;;;;;3.60;1.75;;;2.50;99.90;;;;;;4951290;29;20062;-80
2022/04/02 03:45:16;;;;;;;5.05;1.63;;;2.50;99.90;;;;;;4951300;29;20027;-81
2022/04/02 03:47:43;;;;;;;6.53;1.85;;;2.40;99.90;;;;;;4951680;29;20028;-80
2022/04/02 03:50:09;;;;;;;15.18;2.67;;;2.40;99.90;;;;;;4950251;29;20023;-80
2022/04/02 03:52:36;;;;;;;3.83;1.85;;;2.30;99.90;;;;;;4950886;29;20039;-80
2022/04/02 03:55:02;;;;;;;6.45;3.00;;;2.30;99.90;;;;;;4951369;29;20057;-79
2022/04/02 03:57:28;;;;;;;13.45;7.15;;;2.20;99.90;;;;;;4968252;29;20507;-81
2022/04/02 03:59:53;;;;;;;3.75;2.00;;;2.30;99.90;;;;;;4951237;29;20047;-79
2022/04/02 04:02:19;;;;;;;5.78;2.55;;;2.20;99.90;;;;;;4951114;29;20035;-79
2022/04/02 04:04:46;;;;;;;15.65;1.83;;;2.20;99.90;;;;;;4951036;29;20498;-79
2022/04/02 04:07:11;;;;;;;10.73;2.42;;;2.20;99.90;;;;;;4950958;29;20062;-79
2022/04/02 04:09:37;;;;;;;6.15;2.67;;;2.10;99.90;;;;;;4950969;29;20023;-78
2022/04/02 04:12:03;;;;;;;7.88;3.53;;;2.10;99.90;;;;;;4968123;29;20522;-80
2022/04/02 04:14:29;;;;;;;8.88;2.85;;;2.10;99.90;;;;;;4950835;29;20027;-79
2022/04/02 04:16:55;;;;;;;5.35;2.72;;;2.10;99.90;;;;;;4950729;29;20442;-79
2022/04/02 04:19:22;;;;;;;8.77;3.22;;;2.00;99.90;;;;;;4973360;28;20027;-79
2022/04/02 04:21:48;;;;;;;3.22;2.13;;;2.00;99.90;;;;;;4985762;28;20035;-80
2022/04/02 04:24:23;;;;;;;8.15;2.05;;;2.00;99.90;;;;;;4987224;28;20042;-79
2022/04/02 04:26:49;;;;;;;3.30;1.20;;;1.90;99.90;;;;;;4976464;28;20035;-80
2022/04/02 04:29:15;;;;;;;5.82;1.73;;;1.90;99.90;;;;;;4951024;28;20035;-80
2022/04/02 04:31:40;;;;;;;6.88;2.22;;;1.90;99.90;;;;;;4966851;29;20027;-80
2022/04/02 04:34:06;;;;;;;10.65;2.92;;;1.90;99.90;;;;;;4966026;29;20735;-79
2022/04/02 04:36:32;;;;;;;6.40;2.38;;;1.90;99.90;;;;;;4950671;29;20035;-79
2022/04/02 04:38:59;;;;;;;4.82;1.92;;;1.90;99.90;;;;;;4950494;29;20113;-77
2022/04/02 04:41:24;;;;;;;5.95;3.03;;;1.90;99.90;;;;;;4985387;28;20065;-77
2022/04/02 04:43:51;;;;;;;3.05;2.10;;;1.90;99.90;;;;;;4966854;29;20031;-76
2022/04/02 04:46:19;;;;;;;5.43;2.65;;;1.90;99.90;;;;;;4950404;29;20031;-75
2022/04/02 04:48:45;;;;;;;4.45;2.15;;;1.80;99.90;;;;;;4977522;28;20057;-75
2022/04/02 04:51:13;;;;;;;4.40;2.15;;;1.80;99.90;;;;;;4986851;28;20041;-75
2022/04/02 04:53:40;;;;;;;7.00;2.10;;;1.80;99.90;;;;;;4986718;28;20113;-76
2022/04/02 04:56:07;;;;;;;5.28;2.38;;;1.80;99.90;;;;;;4969338;28;20034;-75
2022/04/02 04:58:33;;;;;;;5.07;2.15;;;1.80;99.90;;;;;;4986871;28;20030;-76
2022/04/02 05:00:58;;;;;;;4.80;2.00;;;1.80;99.90;;;;;;4986744;28;20090;-76
2022/04/02 05:03:25;;;;;;;3.72;1.80;;;1.70;99.90;;;;;;4986591;28;20113;-74
2022/04/02 05:05:52;;;;;;;4.78;2.28;;;1.70;99.90;;;;;;4969570;28;20023;-74
2022/04/02 05:08:25;;;;;;;4.72;2.15;;;1.80;99.90;;;;;;4969356;28;20026;-74
2022/04/02 05:10:51;;;;;;;10.48;1.98;;;1.80;99.90;;;;;;4969952;28;20045;-76
2022/04/02 05:13:17;;;;;;;4.90;2.13;;;1.70;99.90;;;;;;4987228;28;20023;-76
2022/04/02 05:15:44;;;;;;;4.47;2.05;;;1.70;99.90;;;;;;4986767;28;20022;-75
2022/04/02 05:18:11;;;;;;;6.57;2.60;;;1.60;99.90;;;;;;4987228;28;20023;-74
2022/04/02 05:20:38;;;;;;;8.98;2.80;;;1.60;99.90;;;;;;4980817;28;20033;-74
2022/04/02 05:23:05;;;;;;;3.97;1.92;;;1.60;99.90;;;;;;4962804;28;20082;-73
2022/04/02 05:25:35;;;;;;;7.57;2.33;;;1.60;99.90;;;;;;4982366;28;20027;-74
2022/04/02 05:28:04;;;;;;;6.65;1.83;;;1.60;99.90;;;;;;4987487;28;20023;-75
2022/04/02 05:30:34;;;;;;;5.03;2.28;;;1.60;99.90;;;;;;4986631;28;20033;-76
2022/04/02 05:32:59;;;;;;;4.20;2.10;;;1.70;99.90;;;;;;4981190;28;20086;-72
2022/04/02 05:35:26;;;;;;;3.95;2.03;;;1.70;99.90;;;;;;4970304;28;20053;-74
2022/04/02 05:37:52;;;;;;;4.88;1.75;;;1.70;99.90;;;;;;4973210;28;20063;-74
2022/04/02 05:40:22;;;;;;;2.92;1.60;;;1.70;99.90;;;;;;4971050;28;20046;-75
2022/04/02 05:42:48;;;;;;;3.67;1.52;;;1.70;99.90;;;;;;4972987;28;20039;-74
2022/04/02 05:45:17;;;;;;;2.67;1.45;;;1.70;99.90;;;;;;4974273;28;20031;-74
2022/04/02 05:47:45;;;;;;;7.15;1.85;;;1.80;99.90;;;;;;4970621;28;20058;-75
2022/04/02 05:50:12;;;;;;;5.90;2.08;;;1.80;99.90;;;;;;4985704;28;20027;-73
2022/04/02 05:52:39;;;;;;;5.53;2.42;;;1.90;99.90;;;;;;4984896;28;20033;-74
2022/04/02 05:55:10;;;;;;;6.22;3.03;;;1.90;99.90;;;;;;4963459;28;20038;-75
2022/04/02 05:57:38;;;;;;;7.57;3.03;;;1.90;99.90;;;;;;4972185;28;20026;-75
2022/04/02 06:00:11;;;;;;;12.68;2.75;;;1.90;99.90;;;;;;4985921;28;20023;-76
2022/04/02 06:02:38;;;;;;;7.32;2.22;;;2.00;99.90;;;;;;4984579;28;20495;-75
2022/04/02 06:05:06;;;;;;;5.63;2.00;;;2.00;99.90;;;;;;4983179;28;20073;-75
2022/04/02 06:07:33;;;;;;;4.50;2.72;;;2.00;99.90;;;;;;4967736;28;20027;-75
2022/04/02 06:10:02;;;;;;;10.80;2.67;;;2.10;99.90;;;;;;4977699;28;20023;-73
2022/04/02 06:12:28;;;;;;;5.65;2.60;;;2.10;99.90;;;;;;4978969;28;20027;-73
2022/04/02 06:14:53;;;;;;;5.35;2.22;;;2.20;99.90;;;;;;4988142;28;20379;-73
2022/04/02 06:17:19;;;;;;;6.72;2.45;;;2.20;99.90;;;;;;4990319;28;20039;-76
2022/04/02 06:19:45;;;;;;;3.90;1.90;;;2.20;99.90;;;;;;4972361;28;20031;-73
2022/04/02 06:22:11;;;;;;;9.18;2.28;;;2.20;99.90;;;;;;4972386;28;20050;-76
2022/04/02 06:24:37;;;;;;;5.10;2.03;;;2.20;99.90;;;;;;4960629;28;20097;-75
2022/04/02 06:27:03;;;;;;;7.05;3.03;;;2.30;99.90;;;;;;4961931;28;20031;-76
2022/04/02 06:29:29;;;;;;;3.95;1.52;;;2.30;99.90;;;;;;4967850;29;20031;-76
2022/04/02 06:31:55;;;;;;;5.72;2.25;;;2.40;99.90;;;;;;4958396;28;20028;-76
2022/04/02 06:34:21;;;;;;;3.95;2.25;;;2.40;99.90;;;;;;4962072;29;20027;-75
2022/04/02 06:36:46;;;;;;;6.20;2.10;;;2.40;99.90;;;;;;4968718;29;20037;-76
2022/04/02 06:39:16;;;;;;;6.72;2.03;;;2.50;99.90;;;;;;4969293;28;20027;-77
2022/04/02 06:41:42;;;;;;;2.97;1.70;;;2.60;99.90;;;;;;4953663;29;20053;-76
2022/04/02 06:44:08;;;;;;;2.47;1.38;;;2.70;99.90;;;;;;4963323;28;20416;-75
2022/04/02 06:46:34;;;;;;;3.42;1.80;;;2.70;99.90;;;;;;4951507;28;20024;-76
2022/04/02 06:49:00;;;;;;;4.10;1.92;;;2.80;99.90;;;;;;4964613;28;20283;-76
2022/04/02 06:51:26;;;;;;;5.53;2.13;;;2.90;99.90;;;;;;4969374;29;20484;-74
2022/04/02 06:53:53;;;;;;;3.33;1.85;;;2.90;99.90;;;;;;4965766;28;20031;-75
2022/04/02 06:56:19;;;;;;;3.25;1.67;;;3.00;99.90;;;;;;4963379;28;20024;-78
2022/04/02 06:58:49;;;;;;;1.70;1.17;;;3.00;99.90;;;;;;4965219;28;20038;-75
2022/04/02 07:01:15;;;;;;;6.95;1.50;;;3.10;99.90;;;;;;4949081;29;20080;-77
2022/04/02 07:03:40;;;;;;;3.40;1.35;;;3.20;99.90;;;;;;4952782;29;20075;-76
2022/04/02 07:06:08;;;;;;;4.47;1.50;;;3.30;99.90;;;;;;4961500;29;20040;-76
2022/04/02 07:08:37;;;;;;;6.55;1.98;;;3.30;99.90;;;;;;4959927;29;20027;-78
2022/04/02 07:11:05;;;;;;;3.00;1.73;;;3.50;99.90;;;;;;4960527;28;20575;-75
2022/04/02 07:13:31;;;;;;;4.13;2.05;;;3.50;99.90;;;;;;4963851;28;20031;-76
2022/04/02 07:15:57;;;;;;;3.08;1.40;;;3.60;99.90;;;;;;4967064;28;20035;-77
2022/04/02 07:18:24;;;;;;;1.45;1.20;;;3.70;99.90;;;;;;4961691;29;20087;-77
2022/04/02 07:21:00;;;;;;;1.70;1.15;;;3.80;99.90;;;;;;4950068;29;20034;-78
2022/04/02 07:23:29;;;;;;;2.70;1.30;;;3.80;99.90;;;;;;4966364;28;20047;-76
2022/04/02 07:25:55;;;;;;;1.90;1.52;;;3.90;99.90;;;;;;4958618;28;20085;-75
2022/04/02 07:28:23;;;;;;;4.38;1.40;;;4.00;99.90;;;;;;4956327;29;20024;-76
2022/04/02 07:30:52;;;;;;;3.40;1.65;;;4.00;99.90;;;;;;4948929;29;20032;-76
2022/04/02 07:33:19;;;;;;;6.10;1.45;;;4.10;99.90;;;;;;4949442;29;20031;-77
2022/04/02 07:35:54;;;;;;;2.72;1.23;;;4.20;99.90;;;;;;4958054;28;20027;-76
2022/04/02 07:38:39;;;;;;;5.13;1.85;;;4.30;99.90;;;;;;4944654;29;20030;-75
2022/04/02 07:41:29;;;;;;;3.58;1.88;;;4.30;99.90;;;;;;4960302;29;20035;-74
2022/04/02 07:44:02;;;;;;;4.20;1.15;;;4.40;99.90;;;;;;4957516;28;20126;-75
2022/04/02 07:46:30;;;;;;;3.05;1.58;;;4.60;99.90;;;;;;4946518;29;20039;-75
2022/04/02 07:48:57;;;;;;;4.20;1.50;;;4.70;99.90;;;;;;4966535;29;20031;-74
2022/04/02 07:51:29;;;;;;;3.95;1.20;;;4.80;99.90;;;;;;4951597;29;20028;-76
2022/04/02 07:53:59;;;;;;;10.65;1.35;;;4.90;99.90;;;;;;4968182;29;20020;-75
2022/04/02 07:56:30;;;;;;;2.83;1.27;;;5.00;99.90;;;;;;4946588;29;20028;-75
2022/04/02 07:59:01;;;;;;;2.65;1.77;;;5.20;99.90;;;;;;4955981;29;20024;-75
2022/04/02 08:01:28;;;;;;;2.63;1.20;;;5.30;99.90;;;;;;4952497;29;20055;-76
2022/04/02 08:03:54;;;;;;;3.72;1.80;;;5.40;99.90;;;;;;4960954;28;20034;-74
2022/04/02 08:06:21;;;;;;;3.50;1.10;;;5.40;99.90;;;;;;4964928;29;20028;-74
2022/04/02 08:08:47;;;;;;;2.35;1.20;;;5.60;99.90;;;;;;4957496;29;20024;-76
2022/04/02 08:11:19;;;;;;;4.47;1.67;;;5.60;99.90;;;;;;4960756;28;20038;-74
2022/04/02 08:13:46;;;;;;;2.67;1.33;;;5.60;99.90;;;;;;4953058;29;20028;-75
2022/04/02 08:16:11;;;;;;;1.98;0.88;;;5.70;99.90;;;;;;4964580;28;20062;-75
2022/04/02 08:18:41;;;;;;;3.60;1.55;;;5.90;99.90;;;;;;4947921;29;20055;-75
2022/04/02 08:21:09;;;;;;;3.50;1.30;;;6.20;99.90;;;;;;4945573;29;20043;-77
2022/04/02 08:23:36;;;;;;;2.50;1.42;;;6.30;99.90;;;;;;4941028;29;20065;-76
2022/04/02 08:26:12;;;;;;;5.88;1.52;;;6.50;99.90;;;;;;4968811;29;20024;-75
2022/04/02 08:28:54;;;;;;;1.80;0.68;;;6.70;99.90;;;;;;4962068;29;20063;-76
2022/04/02 08:31:29;;;;;;;2.63;1.10;;;7.00;99.90;;;;;;4949972;28;20756;-76
2022/04/02 08:34:30;;;;;;;2.08;1.08;;;7.10;99.90;;;;;;4963376;28;20118;-74
2022/04/02 08:37:23;;;;;;;2.92;1.40;;;7.10;99.90;;;;;;4958451;28;20027;-75
2022/04/02 08:39:58;;;;;;;2.58;1.67;;;7.20;99.90;;;;;;4953922;28;20031;-77
2022/04/02 08:42:45;;;;;;;1.00;0.68;;;7.30;99.90;;;;;;4986187;28;20038;-77
2022/04/02 08:45:14;;;;;;;2.08;1.42;;;7.30;99.90;;;;;;4969192;28;20035;-78
2022/04/02 08:47:59;;;;;;;23.40;6.63;;;7.40;99.90;;;;;;4975934;28;20051;-77
2022/04/02 08:50:36;;;;;;;5.07;2.63;;;7.40;99.90;;;;;;4962464;28;20038;-76
2022/04/02 08:53:22;;;;;;;39.17;15.00;;;7.30;99.90;;;;;;4960523;28;20043;-76
2022/04/02 08:55:51;;;;;;;5.88;1.90;;;7.50;99.90;;;;;;4947864;29;20163;-75
2022/04/02 08:58:25;;;;;;;3.45;1.30;;;7.40;99.90;;;;;;4960951;29;20027;-75
2022/04/02 09:01:08;;;;;;;3.88;1.83;;;7.40;99.90;;;;;;4967525;28;20081;-78
2022/04/02 09:03:55;;;;;;;3.88;1.38;;;7.60;99.90;;;;;;4964890;29;20046;-78
2022/04/02 09:06:24;;;;;;;2.35;0.93;;;7.80;99.90;;;;;;4967330;28;20031;-77
2022/04/02 09:09:10;;;;;;;4.15;2.13;;;7.90;99.90;;;;;;4966295;28;20031;-75
2022/04/02 09:12:17;;;;;;;5.22;2.30;;;7.80;99.90;;;;;;4965711;28;20035;-76
2022/04/02 09:15:10;;;;;;;4.28;2.28;;;7.80;99.90;;;;;;4943989;29;20039;-75
2022/04/02 09:17:45;;;;;;;7.38;1.25;;;8.20;99.90;;;;;;4947766;29;20046;-76
2022/04/02 09:20:18;;;;;;;2.08;1.00;;;8.30;99.90;;;;;;4948137;29;20066;-74
2022/04/02 09:23:07;;;;;;;1.05;0.68;;;8.40;99.90;;;;;;4947139;29;20051;-74
2022/04/02 09:26:04;;;;;;;1.42;0.90;;;8.30;99.90;;;;;;4938572;29;20068;-73
2022/04/02 09:28:48;;;;;;;2.25;1.13;;;8.20;99.90;;;;;;4964096;29;20039;-75
2022/04/02 09:31:28;;;;;;;1.35;0.60;;;8.40;99.90;;;;;;4966077;29;20028;-77
2022/04/02 09:34:34;;;;;;;2.38;1.10;;;8.60;99.90;;;;;;4966658;29;20087;-75
2022/04/02 09:37:23;;;;;;;3.33;1.20;;;8.80;99.90;;;;;;4966194;29;20023;-75
2022/04/02 09:40:09;;;;;;;3.22;1.00;;;8.90;99.90;;;;;;4949120;29;20028;-77
2022/04/02 09:42:44;;;;;;;4.40;1.92;;;8.70;99.90;;;;;;4966583;29;20066;-73
2022/04/02 09:45:15;;;;;;;1.48;0.77;;;8.60;99.90;;;;;;4965986;29;20388;-76
2022/04/02 09:48:02;;;;;;;1.27;0.90;;;8.40;99.90;;;;;;4940524;29;20031;-75
2022/04/02 09:50:29;;;;;;;0.47;0.47;;;8.30;99.90;;;;;;4949968;29;20051;-75
2022/04/02 09:53:19;;;;;;;3.35;0.98;;;8.20;99.90;;;;;;4954867;29;20051;-75
2022/04/02 09:56:18;;;;;;;0.40;0.40;;;8.50;99.90;;;;;;4943854;29;20031;-75
2022/04/02 09:59:04;;;;;;;8.60;1.05;;;9.00;99.90;;;;;;4947345;29;20032;-76
2022/04/02 10:01:51;;;;;;;2.05;0.63;;;9.30;99.90;;;;;;4947499;29;20047;-74
2022/04/02 10:04:33;;;;;;;0.93;0.47;;;9.50;99.90;;;;;;4947806;29;20031;-74
2022/04/02 10:07:04;;;;;;;1.13;0.70;;;9.60;99.90;;;;;;4946960;29;20028;-75
2022/04/02 10:09:40;;;;;;;0.95;0.52;;;9.90;99.90;;;;;;4947512;29;20024;-75
2022/04/02 10:12:09;;;;;;;0.95;0.60;;;10.00;99.90;;;;;;4947365;29;20042;-74
2022/04/02 10:14:38;;;;;;;5.22;0.80;;;10.00;99.90;;;;;;4960955;29;20110;-75
2022/04/02 10:17:09;;;;;;;2.70;0.90;;;9.70;99.90;;;;;;4966532;29;20030;-76
2022/04/02 10:19:38;;;;;;;6.65;1.25;;;9.40;99.90;;;;;;4966525;29;20031;-75
2022/04/02 10:22:11;;;;;;;4.68;1.10;;;9.10;99.90;;;;;;4965793;28;20045;-74
2022/04/02 10:24:47;;;;;;;3.70;1.30;;;8.90;99.90;;;;;;4983993;28;20059;-76
2022/04/02 10:27:31;;;;;;;1.17;0.65;;;8.80;99.90;;;;;;4985575;28;20235;-75
2022/04/02 10:30:00;;;;;;;3.58;0.88;;;8.60;99.90;;;;;;4985788;28;20029;-75
2022/04/02 10:35:53;;;;;;;0.90;0.50;;;8.90;99.90;;;;;;4985817;28;20034;-75
2022/04/02 10:38:35;;;;;;;1.35;0.82;;;9.40;99.90;;;;;;4985708;28;20460;-75
2022/04/02 10:41:17;;;;;;;1.65;0.82;;;9.70;99.90;;;;;;4982936;28;20027;-73
2022/04/02 10:44:02;;;;;;;1.23;0.82;;;10.30;99.70;;;;;;4985640;28;20452;-75
2022/04/02 10:46:31;;;;;;;1.05;0.60;;;10.70;97.40;;;;;;4985542;28;20098;-74
2022/04/02 10:49:12;;;;;;;1.00;0.63;;;11.10;99.40;;;;;;4981363;28;20082;-77
2022/04/02 10:51:43;;;;;;;1.00;0.60;;;11.30;95.10;;;;;;4974655;28;20096;-77
2022/04/02 10:54:12;;;;;;;1.20;0.40;;;11.00;96.40;;;;;;4969043;28;20038;-75
2022/04/02 10:56:44;;;;;;;2.10;0.60;;;10.30;96.30;;;;;;4980701;28;20502;-76
2022/04/02 10:59:12;;;;;;;1.45;0.65;;;9.90;96.40;;;;;;4984950;28;20041;-75
2022/04/02 11:01:48;;;;;;;0.70;0.50;;;9.50;96.60;;;;;;4994666;28;20125;-76
2022/04/02 11:04:43;;;;;;;3.00;1.20;;;9.20;97.10;;;;;;4981818;28;20117;-75
2022/04/02 11:07:09;;;;;;;1.33;0.70;;;9.00;98.30;;;;;;5002989;28;20086;-75
2022/04/02 11:09:39;;;;;;;2.53;0.98;;;9.20;99.90;;;;;;4988106;28;20022;-78
2022/04/02 11:12:15;;;;;;;1.88;1.00;;;9.30;99.90;;;;;;4990802;28;20455;-75
2022/04/02 11:14:51;;;;;;;1.35;0.63;;;9.50;99.90;;;;;;4985236;28;20031;-76
2022/04/02 11:17:32;;;;;;;0.93;0.82;;;9.40;99.90;;;;;;4986364;28;20031;-77
2022/04/02 11:20:40;;;;;;;1.63;0.70;;;9.20;99.90;;;;;;4978794;28;20042;-76
2022/04/02 11:23:15;;;;;;;2.75;1.00;;;8.90;99.90;;;;;;4979489;28;20058;-75
2022/04/02 11:25:46;;;;;;;2.55;1.00;;;8.90;99.90;;;;;;4953835;28;20172;-77
2022/04/02 11:28:15;;;;;;;2.70;1.00;;;9.30;99.70;;;;;;4974926;28;20034;-74
2022/04/02 11:30:45;;;;;;;0.73;0.52;;;9.80;99.90;;;;;;4972187;28;20027;-77
2022/04/02 11:33:18;;;;;;;1.42;0.63;;;10.30;99.90;;;;;;4972999;28;20028;-77
2022/04/02 11:35:54;;;;;;;5.80;0.80;;;10.80;96.30;;;;;;4968601;29;20050;-75
2022/04/02 11:38:20;;;;;;;0.65;0.40;;;11.20;96.00;;;;;;4952474;28;20030;-75
2022/04/02 11:41:13;;;;;;;2.70;1.05;;;11.50;97.20;;;;;;4961689;28;20038;-76
2022/04/02 11:43:44;;;;;;;1.25;0.82;;;11.50;95.80;;;;;;4971223;28;20043;-78
2022/04/02 11:46:12;;;;;;;1.70;0.75;;;11.00;97.50;;;;;;4963032;29;20035;-77
2022/04/02 11:48:59;;;;;;;0.60;0.40;;;10.60;96.80;;;;;;4967155;29;20042;-78
2022/04/02 11:51:30;;;;;;;1.25;0.80;;;10.20;97.20;;;;;;4950503;29;20035;-75
2022/04/02 11:54:07;;;;;;;2.40;0.88;;;9.70;97.50;;;;;;4966552;29;20500;-76
2022/04/02 11:56:43;;;;;;;0.95;0.80;;;9.40;98.30;;;;;;4975802;28;20027;-73
2022/04/02 11:59:14;;;;;;;0.85;0.60;;;9.10;98.30;;;;;;4995413;28;20410;-76
2022/04/02 12:01:50;;;;;;;1.70;1.00;;;9.20;98.40;;;;;;4969917;28;20039;-76
2022/04/02 12:04:22;;;;;;;1.08;0.70;;;9.20;98.30;;;;;;4989894;28;20035;-76
2022/04/02 12:07:02;;;;;;;2.83;0.90;;;9.10;97.70;;;;;;4969427;28;20052;-74
2022/04/02 12:09:27;;;;;;;1.33;0.55;;;9.00;97.50;;;;;;4965068;29;20048;-76
2022/04/02 12:11:55;;;;;;;1.20;0.70;;;8.90;98.30;;;;;;4965839;28;20092;-77
2022/04/02 12:14:30;;;;;;;2.10;0.60;;;8.90;98.40;;;;;;4967060;28;20392;-77
2022/04/02 12:17:02;;;;;;;4.20;0.82;;;9.00;97.90;;;;;;4981406;28;20440;-76
2022/04/02 12:19:52;;;;;;;5.28;0.90;;;9.20;97.40;;;;;;5000257;28;20105;-77
2022/04/02 12:22:33;;;;;;;2.25;0.68;;;9.30;96.30;;;;;;4969154;28;20110;-77
2022/04/02 12:25:02;;;;;;;1.33;0.75;;;9.20;95.90;;;;;;4985441;28;20046;-75
2022/04/02 12:27:30;;;;;;;1.13;0.50;;;9.00;96.30;;;;;;4966421;28;20038;-77
2022/04/02 12:30:03;;;;;;;1.10;0.60;;;8.80;96.50;;;;;;4991607;28;20392;-76
2022/04/02 12:32:44;;;;;;;1.13;0.60;;;8.80;97.40;;;;;;4986534;28;20417;-76
2022/04/02 12:35:14;;;;;;;0.70;0.55;;;9.50;96.60;;;;;;4985037;28;20053;-77
2022/04/02 12:37:52;;;;;;;1.00;0.55;;;10.20;94.00;;;;;;4985697;28;20128;-75
2022/04/02 12:40:21;;;;;;;0.60;0.55;;;10.50;92.50;;;;;;4995093;28;20060;-79
2022/04/02 12:42:49;;;;;;;0.45;0.40;;;10.40;90.90;;;;;;5004305;28;20034;-77
2022/04/02 12:45:20;;;;;;;0.73;0.50;;;10.20;93.50;;;;;;4988886;28;20035;-77
2022/04/02 12:48:07;;;;;;;0.80;0.80;;;10.20;94.10;;;;;;4989400;28;20081;-78
2022/04/02 12:50:37;;;;;;;0.68;0.50;;;10.00;94.30;;;;;;4998996;28;20062;-74
2022/04/02 12:53:04;;;;;;;0.38;0.28;;;9.90;95.30;;;;;;4977371;28;20037;-75
2022/04/02 12:55:32;;;;;;;0.77;0.65;;;9.80;94.60;;;;;;4978326;28;20055;-77
2022/04/02 12:58:15;;;;;;;1.00;0.60;;;9.70;94.20;;;;;;4949150;29;20042;-74
2022/04/02 13:00:44;;;;;;;1.13;0.60;;;9.50;94.60;;;;;;4971560;28;20039;-77
2022/04/02 13:03:10;;;;;;;2.00;0.65;;;10.00;93.90;;;;;;4949166;29;20098;-77
2022/04/02 13:05:50;;;;;;;0.50;0.28;;;10.40;93.40;;;;;;4966258;28;20092;-77
2022/04/02 13:08:28;;;;;;;2.22;0.60;;;10.60;93.80;;;;;;4980037;28;20030;-77
2022/04/02 13:10:56;;;;;;;1.35;0.73;;;10.40;92.80;;;;;;4964819;28;20475;-78
2022/04/02 13:13:43;;;;;;;9.73;0.65;;;10.30;92.50;;;;;;4957273;29;20031;-77
2022/04/02 13:16:11;;;;;;;0.75;0.75;;;10.80;91.60;;;;;;4972278;28;20582;-78
2022/04/02 13:21:32;;;;;;;1.45;0.50;;;10.90;91.00;;;;;;4978782;28;20039;-77
2022/04/02 13:24:03;;;;;;;0.30;0.30;;;10.70;91.10;;;;;;4983838;28;20062;-78